Time;durP1;ratioP1;P1;durP2;ratioP2;P2;SDS_P1;SDS_P2;PMS_P1;PMS_P2;Temp;Humidity;BMP_temperature;BMP_pressure;BME280_temperature;BME280_humidity;BME280_pressure;Samples;Min_cycle;Max_cycle;Signal;HPM_P1;HPM_P2
2022/05/03 00:00:08;;;;;;;34.20;20.40;;;;;;;6.26;65.36;97092.48;1613004;88;26007;-74
2022/05/03 00:03:10;;;;;;;34.58;22.35;;;;;;;6.25;65.35;97088.98;1610650;89;25874;-74
2022/05/03 00:06:02;;;;;;;36.23;22.07;;;;;;;6.24;65.48;97087.31;1611030;89;26314;-74
2022/05/03 00:08:37;;;;;;;37.73;22.02;;;;;;;6.24;65.55;97091.84;1610669;89;25766;-77
2022/05/03 00:11:11;;;;;;;36.63;22.62;;;;;;;6.20;65.56;97086.03;1608237;89;27482;-74
2022/05/03 00:14:02;;;;;;;43.80;24.75;;;;;;;6.16;65.55;97087.42;1610588;89;25529;-74
2022/05/03 00:16:30;;;;;;;41.28;25.10;;;;;;;6.12;65.65;97084.31;1610931;89;25872;-75
2022/05/03 00:18:57;;;;;;;49.98;27.10;;;;;;;6.11;65.79;97090.69;1611190;89;25851;-74
2022/05/03 00:21:24;;;;;;;42.60;25.62;;;;;;;6.11;65.95;97085.84;1611074;89;27099;-75
2022/05/03 00:23:50;;;;;;;46.35;26.50;;;;;;;6.10;65.97;97082.33;1611054;89;28294;-77
2022/05/03 00:26:18;;;;;;;45.03;26.37;;;;;;;6.08;66.03;97083.03;1611054;89;25882;-74
2022/05/03 00:28:46;;;;;;;44.88;25.72;;;;;;;6.04;66.04;97080.40;1602637;89;25849;-74
2022/05/03 00:31:14;;;;;;;47.33;24.75;;;;;;;5.99;66.07;97077.48;1606873;88;26710;-75
2022/05/03 00:33:42;;;;;;;44.93;25.23;;;;;;;5.92;66.18;97075.22;1622512;88;25853;-74
2022/05/03 00:36:08;;;;;;;44.67;27.05;;;;;;;5.93;66.24;97079.56;1599139;89;28338;-74
2022/05/03 00:38:35;;;;;;;49.80;26.85;;;;;;;5.92;66.32;97075.22;1622116;88;25884;-75
2022/05/03 00:41:05;;;;;;;46.73;27.32;;;;;;;5.91;66.35;97076.27;1622364;88;25834;-77
2022/05/03 00:43:46;;;;;;;43.48;24.87;;;;;;;5.90;66.37;97079.14;1622201;88;26001;-74
2022/05/03 00:46:17;;;;;;;40.35;22.65;;;;;;;5.87;66.41;97080.81;1564716;91;26370;-75
2022/05/03 00:49:06;;;;;;;38.08;22.25;;;;;;;5.78;66.46;97081.45;1569884;91;27475;-73
2022/05/03 00:51:47;;;;;;;36.88;21.00;;;;;;;5.75;66.50;97076.47;1569668;91;25857;-74
2022/05/03 00:54:30;;;;;;;40.12;20.72;;;;;;;5.72;66.55;97076.84;1566824;91;25793;-74
2022/05/03 00:57:20;;;;;;;35.73;20.57;;;;;;;5.69;66.57;97067.83;1568318;91;25796;-74
2022/05/03 01:00:09;;;;;;;36.13;20.20;;;;;;;5.66;66.61;97074.92;1564816;91;25832;-74
2022/05/03 01:02:53;;;;;;;32.08;20.62;;;;;;;5.59;66.65;97074.83;1520931;94;27519;-73
2022/05/03 01:05:43;;;;;;;31.50;19.52;;;;;;;5.53;66.75;97075.59;1544162;92;26587;-74
2022/05/03 01:08:15;;;;;;;34.45;18.80;;;;;;;5.51;66.91;97074.12;1522495;94;26942;-74
2022/05/03 01:11:07;;;;;;;32.10;19.27;;;;;;;5.48;66.87;97072.64;1519714;94;26560;-74
2022/05/03 01:13:47;;;;;;;34.10;19.85;;;;;;;5.44;66.94;97076.19;1479177;95;25940;-74
2022/05/03 01:16:34;;;;;;;33.53;20.37;;;;;;;5.42;67.03;97074.23;1477656;95;27849;-75
2022/05/03 01:19:18;;;;;;;32.73;19.60;;;;;;;5.40;66.99;97078.94;1393749;102;25954;-74
2022/05/03 01:22:11;;;;;;;40.00;20.65;;;;;;;5.35;67.05;97075.98;1393978;101;25995;-74
2022/05/03 01:25:16;;;;;;;34.80;19.90;;;;;;;5.22;67.14;97081.16;1434184;98;26079;-75
2022/05/03 01:28:06;;;;;;;31.48;18.00;;;;;;;5.13;67.40;97078.27;1435898;98;25653;-74
2022/05/03 01:30:37;;;;;;;30.02;17.85;;;;;;;5.11;67.57;97085.64;1435602;99;27468;-76
2022/05/03 01:33:07;;;;;;;29.63;17.80;;;;;;;5.12;67.58;97091.31;1435815;98;25829;-72
2022/05/03 01:35:40;;;;;;;28.25;17.57;;;;;;;5.06;67.51;97089.40;1435811;98;25922;-73
2022/05/03 01:38:38;;;;;;;31.65;18.30;;;;;;;4.94;67.51;97086.86;1435613;98;25940;-74
2022/05/03 01:41:44;;;;;;;27.27;17.52;;;;;;;4.92;67.75;97083.53;1423397;100;25391;-74
2022/05/03 01:44:33;;;;;;;25.90;16.60;;;;;;;4.94;67.82;97085.02;1396677;100;27445;-75
2022/05/03 01:47:24;;;;;;;25.85;15.25;;;;;;;4.92;67.93;97087.03;1419712;101;26025;-74
2022/05/03 01:50:20;;;;;;;25.92;16.42;;;;;;;4.94;68.05;97091.70;1462026;96;25790;-77
2022/05/03 01:53:29;;;;;;;23.10;15.53;;;;;;;4.95;67.99;97087.18;1486232;96;25870;-73
2022/05/03 01:56:38;;;;;;;20.97;14.90;;;;;;;4.93;67.99;97087.87;1486077;96;26083;-74
2022/05/03 01:59:36;;;;;;;23.25;16.42;;;;;;;4.85;68.13;97092.78;1489217;95;28022;-74
2022/05/03 02:02:26;;;;;;;28.67;16.67;;;;;;;4.80;68.40;97087.67;1495597;95;25980;-75
2022/05/03 02:05:05;;;;;;;28.95;17.07;;;;;;;4.69;68.52;97084.44;1499975;95;25843;-74
2022/05/03 02:07:56;;;;;;;21.93;15.83;;;;;;;4.65;68.79;97084.47;1453444;98;26523;-76
2022/05/03 02:10:44;;;;;;;27.57;18.37;;;;;;;4.70;68.98;97082.09;1432241;99;25897;-74
2022/05/03 02:17:18;;;;;;;23.67;16.57;;;;;;;4.84;69.18;97087.61;1414316;99;25851;-73
2022/05/03 02:20:28;;;;;;;27.60;16.33;;;;;;;4.89;69.31;97083.38;1422640;99;25534;-74
2022/05/03 02:23:17;;;;;;;21.05;15.40;;;;;;;4.94;69.41;97085.52;1422272;99;25908;-74
2022/05/03 02:26:21;;;;;;;26.85;18.92;;;;;;;4.97;69.35;97087.80;1382779;102;25885;-76
2022/05/03 02:29:10;;;;;;;24.18;16.52;;;;;;;5.01;69.30;97080.58;1383849;102;27511;-74
2022/05/03 02:31:51;;;;;;;30.60;21.35;;;;;;;4.99;69.40;97082.59;1429727;99;25954;-74
2022/05/03 02:34:47;;;;;;;28.67;20.55;;;;;;;4.96;69.48;97074.10;1429767;98;25995;-74
2022/05/03 02:37:21;;;;;;;26.07;19.48;;;;;;;5.00;69.57;97076.74;1428838;98;26532;-76
2022/05/03 02:39:58;;;;;;;29.23;19.45;;;;;;;5.01;69.56;97067.70;1427316;98;26694;-73
2022/05/03 02:42:25;;;;;;;25.23;17.77;;;;;;;5.04;69.58;97068.68;1432935;98;28025;-77
2022/05/03 02:44:57;;;;;;;26.93;18.07;;;;;;;5.06;69.59;97064.81;1421148;100;26334;-73
2022/05/03 02:47:46;;;;;;;23.57;18.17;;;;;;;5.08;69.63;97067.28;1409144;99;25827;-74
2022/05/03 02:53:09;;;;;;;22.52;17.37;;;;;;;5.05;69.76;97072.52;1413792;100;25920;-74
2022/05/03 02:55:54;;;;;;;21.35;16.87;;;;;;;5.05;69.78;97071.69;1434819;98;28503;-75
2022/05/03 02:59:08;;;;;;;23.42;16.05;;;;;;;5.04;69.77;97067.34;1434748;98;25843;-74
2022/05/03 03:01:57;;;;;;;23.52;16.65;;;;;;;5.02;69.77;97064.84;1434573;98;26014;-74
2022/05/03 03:05:07;;;;;;;21.33;16.35;;;;;;;5.01;69.87;97068.54;1435150;97;25829;-77
2022/05/03 03:07:55;;;;;;;25.90;17.20;;;;;;;5.01;69.91;97071.21;1438286;98;26763;-73
2022/05/03 03:10:45;;;;;;;23.42;17.20;;;;;;;5.02;69.95;97076.06;1498182;94;27649;-74
2022/05/03 03:13:46;;;;;;;23.42;17.02;;;;;;;5.01;70.02;97069.88;1501340;94;25856;-76
2022/05/03 03:16:15;;;;;;;23.80;17.27;;;;;;;5.00;70.19;97076.74;1504079;95;25916;-77
2022/05/03 03:18:45;;;;;;;28.25;18.20;;;;;;;4.93;70.26;97067.81;1503937;94;25937;-74
2022/05/03 03:21:14;;;;;;;23.65;17.23;;;;;;;4.92;70.42;97069.66;1504071;94;25772;-73
2022/05/03 03:23:41;;;;;;;23.85;17.70;;;;;;;4.95;70.44;97073.81;1504020;94;27674;-74
2022/05/03 03:26:10;;;;;;;23.73;16.80;;;;;;;4.97;70.42;97073.09;1514177;92;25867;-74
2022/05/03 03:28:38;;;;;;;25.35;17.67;;;;;;;4.98;70.51;97079.59;1510667;93;25911;-74
2022/05/03 03:31:07;;;;;;;23.95;17.37;;;;;;;4.96;70.54;97074.94;1505441;94;25855;-75
2022/05/03 03:33:36;;;;;;;25.00;17.20;;;;;;;4.99;70.58;97080.42;1442703;96;25947;-74
2022/05/03 03:36:04;;;;;;;23.12;16.90;;;;;;;5.01;70.80;97077.07;1481959;95;27464;-77
2022/05/03 03:38:40;;;;;;;23.20;16.00;;;;;;;4.99;70.83;97073.23;1480106;95;25905;-74
2022/05/03 03:41:09;;;;;;;23.07;15.35;;;;;;;4.95;70.83;97079.95;1478875;95;25823;-74
2022/05/03 03:43:35;;;;;;;22.87;16.60;;;;;;;4.93;71.00;97075.83;1474461;95;25917;-74
2022/05/03 03:46:02;;;;;;;25.08;16.05;;;;;;;4.92;71.20;97077.67;1482531;95;25834;-74
2022/05/03 03:48:28;;;;;;;24.05;17.17;;;;;;;4.95;71.29;97072.47;1455402;95;27514;-75
2022/05/03 03:50:56;;;;;;;25.20;17.20;;;;;;;5.00;71.39;97075.41;1499561;94;25857;-74
2022/05/03 03:53:23;;;;;;;22.52;16.25;;;;;;;5.07;71.39;97080.36;1499895;94;25976;-73
2022/05/03 03:55:51;;;;;;;23.52;15.78;;;;;;;5.13;71.43;97080.94;1513703;92;26552;-77
2022/05/03 03:58:18;;;;;;;28.95;16.62;;;;;;;5.18;71.42;97081.23;1545318;92;25853;-74
2022/05/03 04:03:16;;;;;;;33.23;21.17;;;;;;;5.21;71.63;97076.82;1500963;95;25873;-75
2022/05/03 04:05:44;;;;;;;34.13;24.05;;;;;;;5.26;71.65;97077.11;1501122;95;25874;-77
2022/05/03 04:08:11;;;;;;;32.53;21.95;;;;;;;5.33;71.62;97083.36;1499877;95;26533;-74
2022/05/03 04:10:37;;;;;;;31.52;21.20;;;;;;;5.39;71.55;97086.65;1522620;94;27045;-75
2022/05/03 04:13:05;;;;;;;35.28;23.85;;;;;;;5.44;71.61;97082.88;1522549;94;27595;-76
2022/05/03 04:15:33;;;;;;;35.75;23.42;;;;;;;5.49;71.64;97076.15;1522504;93;25595;-76
2022/05/03 04:18:00;;;;;;;33.10;22.90;;;;;;;5.54;71.59;97081.78;1538491;90;25845;-76
2022/05/03 04:20:26;;;;;;;33.55;22.22;;;;;;;5.61;71.64;97082.68;1562788;90;25864;-75
2022/05/03 04:22:53;;;;;;;31.68;20.55;;;;;;;5.66;71.70;97077.61;1583277;90;25813;-75
2022/05/03 04:25:19;;;;;;;31.17;19.95;;;;;;;5.73;71.68;97079.33;1582256;90;27425;-77
2022/05/03 04:27:46;;;;;;;28.95;20.35;;;;;;;5.82;71.61;97082.71;1582178;90;25783;-77
2022/05/03 04:30:13;;;;;;;28.77;19.85;;;;;;;5.89;71.56;97082.83;1582020;90;25882;-76
2022/05/03 04:32:40;;;;;;;30.37;18.73;;;;;;;5.96;71.53;97083.21;1581984;90;25874;-76
2022/05/03 04:35:07;;;;;;;28.52;19.65;;;;;;;6.03;71.61;97082.78;1581989;90;25594;-75
2022/05/03 04:37:34;;;;;;;34.43;21.40;;;;;;;6.10;71.60;97083.67;1582099;90;28323;-75
2022/05/03 04:40:00;;;;;;;34.25;20.62;;;;;;;6.14;71.59;97078.77;1581993;90;25797;-75
2022/05/03 04:42:27;;;;;;;30.68;20.72;;;;;;;6.23;71.58;97082.14;1582130;90;25973;-77
2022/05/03 04:44:55;;;;;;;30.40;19.80;;;;;;;6.30;71.48;97084.36;1556832;92;26709;-75
2022/05/03 04:47:22;;;;;;;30.25;19.85;;;;;;;6.38;71.59;97089.09;1554841;92;25771;-76
2022/05/03 04:49:49;;;;;;;34.05;20.57;;;;;;;6.43;71.54;97086.65;1546055;92;27423;-77
2022/05/03 04:52:15;;;;;;;25.10;19.07;;;;;;;6.52;71.50;97089.22;1546017;92;26157;-77
2022/05/03 04:54:42;;;;;;;26.42;18.35;;;;;;;6.58;71.50;97079.88;1546015;92;25892;-75
2022/05/03 04:57:09;;;;;;;27.05;18.10;;;;;;;6.65;71.46;97079.40;1546096;92;25758;-78
2022/05/03 04:59:37;;;;;;;24.67;18.05;;;;;;;6.71;71.42;97078.63;1561294;88;26083;-78
2022/05/03 05:02:04;;;;;;;25.17;18.57;;;;;;;6.78;71.49;97077.33;1623103;88;27421;-75
2022/05/03 05:04:31;;;;;;;23.25;17.35;;;;;;;6.85;71.49;97080.39;1623380;88;25964;-75
2022/05/03 05:06:57;;;;;;;22.95;17.42;;;;;;;6.93;71.48;97081.25;1623639;88;25903;-74
2022/05/03 05:09:27;;;;;;;22.98;16.75;;;;;;;7.01;71.49;97081.09;1623208;88;25808;-76
2022/05/03 05:11:54;;;;;;;23.60;16.80;;;;;;;7.09;71.26;97075.59;1623392;88;25961;-76
2022/05/03 05:14:21;;;;;;;20.85;16.35;;;;;;;7.17;71.10;97074.91;1623415;88;28162;-78
2022/05/03 05:16:49;;;;;;;20.72;15.83;;;;;;;7.28;71.09;97074.03;1623377;88;25637;-75
2022/05/03 05:19:16;;;;;;;19.92;16.87;;;;;;;7.40;71.20;97081.84;1623595;88;25785;-75
2022/05/03 05:21:43;;;;;;;24.10;16.32;;;;;;;7.53;71.36;97080.56;1623106;88;25820;-75
2022/05/03 05:24:11;;;;;;;20.35;15.60;;;;;;;7.73;71.62;97077.42;1623332;88;25898;-75
2022/05/03 05:26:38;;;;;;;22.67;17.48;;;;;;;7.90;71.27;97080.08;1623301;88;27502;-76
2022/05/03 05:29:04;;;;;;;20.25;15.32;;;;;;;7.98;70.77;97076.37;1623542;88;25830;-76
2022/05/03 05:31:31;;;;;;;21.52;15.30;;;;;;;8.06;70.70;97073.52;1623370;88;25775;-78
2022/05/03 05:33:57;;;;;;;22.77;16.23;;;;;;;8.17;70.53;97068.88;1623490;88;26426;-75
2022/05/03 05:36:24;;;;;;;23.40;15.88;;;;;;;8.26;70.69;97064.95;1674971;85;26091;-78
2022/05/03 05:38:50;;;;;;;21.27;15.25;;;;;;;8.38;70.76;97065.72;1679665;85;28430;-75
2022/05/03 05:41:17;;;;;;;22.58;13.45;;;;;;;8.49;70.57;97070.48;1679470;85;25786;-75
2022/05/03 05:43:43;;;;;;;20.52;13.58;;;;;;;8.60;70.43;97067.17;1679805;85;25720;-76
2022/05/03 05:46:10;;;;;;;18.00;14.20;;;;;;;8.73;70.20;97071.73;1679670;85;25763;-78
2022/05/03 05:48:39;;;;;;;20.20;14.30;;;;;;;8.84;69.91;97071.92;1679812;84;25798;-76
2022/05/03 05:51:06;;;;;;;19.62;15.05;;;;;;;8.97;69.77;97084.55;1690960;84;27356;-76
2022/05/03 05:53:32;;;;;;;22.25;16.37;;;;;;;9.07;70.08;97084.11;1681148;85;25749;-75
2022/05/03 05:56:01;;;;;;;23.05;16.80;;;;;;;9.17;70.10;97088.05;1666283;85;25695;-75
2022/05/03 05:58:28;;;;;;;24.67;16.37;;;;;;;9.28;69.96;97090.63;1613982;88;26528;-76
2022/05/03 06:00:56;;;;;;;21.30;14.40;;;;;;;9.36;69.63;97084.48;1679596;85;25747;-76
2022/05/03 06:03:22;;;;;;;20.55;15.00;;;;;;;9.43;69.34;97084.44;1679753;84;28136;-76
2022/05/03 06:05:51;;;;;;;20.43;14.98;;;;;;;9.46;69.04;97081.85;1653126;85;25930;-79
2022/05/03 06:08:18;;;;;;;18.37;14.40;;;;;;;9.52;68.88;97085.89;1679268;85;25770;-75
2022/05/03 06:10:45;;;;;;;22.45;15.00;;;;;;;9.59;68.86;97086.68;1679331;85;25726;-75
2022/05/03 06:13:13;;;;;;;20.15;14.80;;;;;;;9.62;68.96;97083.56;1679840;84;25496;-76
2022/05/03 06:15:40;;;;;;;19.75;14.68;;;;;;;9.67;68.88;97074.83;1679561;85;27578;-76
2022/05/03 06:18:08;;;;;;;19.57;14.95;;;;;;;9.78;68.99;97082.23;1679610;84;25259;-77
2022/05/03 06:20:36;;;;;;;19.62;15.08;;;;;;;9.88;68.98;97073.72;1679670;85;26874;-75
2022/05/03 06:23:04;;;;;;;18.17;13.88;;;;;;;9.96;68.76;97082.37;1679543;85;25842;-77
2022/05/03 06:25:31;;;;;;;18.17;14.15;;;;;;;10.04;68.45;97085.34;1653714;85;25761;-76
2022/05/03 06:27:57;;;;;;;20.90;14.80;;;;;;;10.12;68.02;97082.41;1625449;88;28201;-78
2022/05/03 06:30:24;;;;;;;19.10;15.28;;;;;;;10.17;67.83;97081.22;1653595;85;25778;-75
2022/05/03 06:32:51;;;;;;;17.65;14.80;;;;;;;10.24;67.87;97079.88;1653584;86;25278;-76
2022/05/03 06:35:17;;;;;;;17.90;13.53;;;;;;;10.33;67.84;97078.05;1653537;86;25761;-76
2022/05/03 06:37:45;;;;;;;18.62;13.98;;;;;;;10.41;67.60;97076.42;1653629;85;25767;-76
2022/05/03 06:40:12;;;;;;;19.82;14.58;;;;;;;10.48;67.30;97079.61;1653484;86;27397;-76
2022/05/03 06:42:40;;;;;;;17.23;14.80;;;;;;;10.53;67.13;97073.02;1653275;86;25696;-76
2022/05/03 06:45:10;;;;;;;16.52;14.35;;;;;;;10.61;66.98;97076.82;1651614;85;26076;-76
2022/05/03 06:47:38;;;;;;;19.62;14.20;;;;;;;10.70;66.80;97074.14;1653439;86;25758;-78
2022/05/03 06:50:06;;;;;;;20.08;14.90;;;;;;;10.79;66.81;97066.06;1653450;85;25259;-75
2022/05/03 06:52:33;;;;;;;16.85;13.75;;;;;;;10.88;66.92;97067.44;1653437;85;27391;-77
2022/05/03 06:55:00;;;;;;;18.82;13.45;;;;;;;11.02;67.05;97065.44;1653293;86;26612;-76
2022/05/03 06:57:26;;;;;;;19.55;13.53;;;;;;;11.15;67.12;97068.84;1653415;85;26400;-78
2022/05/03 06:59:53;;;;;;;17.37;14.00;;;;;;;11.31;67.17;97069.32;1653218;86;26265;-76
2022/05/03 07:02:19;;;;;;;17.32;13.65;;;;;;;11.46;67.06;97067.08;1638481;86;25587;-76
2022/05/03 07:04:46;;;;;;;22.20;13.88;;;;;;;11.58;66.87;97072.05;1651781;86;27362;-75
2022/05/03 07:07:13;;;;;;;18.25;13.50;;;;;;;11.69;66.57;97079.92;1625124;88;25775;-76
2022/05/03 07:09:42;;;;;;;15.58;13.25;;;;;;;11.77;66.14;97090.45;1653279;85;25923;-76
2022/05/03 07:12:10;;;;;;;17.75;12.75;;;;;;;11.82;66.17;97098.20;1625381;88;25768;-76
2022/05/03 07:14:36;;;;;;;17.42;13.60;;;;;;;11.84;65.75;97105.53;1638897;86;25767;-77
2022/05/03 07:17:05;;;;;;;17.52;13.70;;;;;;;11.86;65.34;97098.02;1649659;86;27347;-77
2022/05/03 07:25:01;;;;;;;23.20;15.35;;;;;;;11.77;66.67;97060.18;1641437;86;25818;-77
2022/05/03 07:27:28;;;;;;;18.65;15.72;;;;;;;11.68;67.35;97041.23;1653390;86;25714;-77
2022/05/03 07:29:55;;;;;;;19.82;14.83;;;;;;;11.68;67.77;97053.93;1679751;85;27415;-79
2022/05/03 07:32:21;;;;;;;18.55;14.43;;;;;;;11.71;67.58;97059.69;1679777;84;25741;-76
2022/05/03 07:34:48;;;;;;;17.27;13.65;;;;;;;11.77;67.59;97064.23;1679948;85;25687;-77
2022/05/03 07:37:14;;;;;;;17.70;14.75;;;;;;;11.83;67.26;97080.09;1679995;85;25725;-75
2022/05/03 07:39:41;;;;;;;18.40;14.40;;;;;;;11.89;67.19;97077.82;1679814;85;25695;-76
2022/05/03 07:42:08;;;;;;;17.10;14.35;;;;;;;11.93;66.85;97075.49;1679962;85;27356;-78
2022/05/03 07:44:34;;;;;;;18.05;15.35;;;;;;;11.99;67.44;97071.86;1679761;85;25279;-77
2022/05/03 07:47:02;;;;;;;21.87;15.13;;;;;;;11.99;67.96;97073.22;1679917;85;25748;-79
2022/05/03 07:49:29;;;;;;;18.42;14.53;;;;;;;12.05;68.02;97070.97;1679321;85;25872;-76
2022/05/03 07:51:55;;;;;;;19.75;15.35;;;;;;;12.15;67.58;97062.59;1679890;85;25745;-77
2022/05/03 07:54:24;;;;;;;18.25;14.58;;;;;;;12.27;67.92;97068.05;1680000;85;27416;-77
2022/05/03 07:56:51;;;;;;;19.27;15.20;;;;;;;12.36;68.04;97069.89;1679563;85;25759;-77
2022/05/03 07:59:17;;;;;;;19.07;14.87;;;;;;;12.48;68.12;97062.62;1679991;85;25734;-79
2022/05/03 08:01:44;;;;;;;20.08;16.02;;;;;;;12.61;67.67;97051.59;1677408;83;25823;-77
2022/05/03 08:04:11;;;;;;;19.35;15.15;;;;;;;12.78;67.86;97051.22;1676199;85;25735;-76
2022/05/03 08:06:38;;;;;;;19.90;15.30;;;;;;;13.10;67.62;97061.19;1676308;85;27410;-78
2022/05/03 08:09:04;;;;;;;17.17;14.45;;;;;;;13.68;68.05;97059.80;1676264;85;25747;-76
2022/05/03 08:11:32;;;;;;;15.72;13.88;;;;;;;14.26;67.43;97052.52;1676253;85;25745;-76
2022/05/03 08:13:58;;;;;;;16.97;12.73;;;;;;;14.72;66.51;97059.11;1676244;85;25727;-75
2022/05/03 08:16:25;;;;;;;13.43;12.00;;;;;;;15.07;65.20;97067.55;1676333;85;25728;-76
2022/05/03 08:18:51;;;;;;;15.80;12.68;;;;;;;15.28;64.44;97059.98;1676436;85;27439;-77
2022/05/03 08:21:21;;;;;;;13.95;10.88;;;;;;;15.51;63.86;97057.59;1676263;85;25793;-76
2022/05/03 08:23:48;;;;;;;14.23;11.30;;;;;;;15.88;63.25;97053.75;1676175;85;25754;-76
2022/05/03 08:26:15;;;;;;;13.43;11.57;;;;;;;16.50;63.25;97047.91;1676379;85;25751;-76
2022/05/03 08:28:42;;;;;;;11.70;10.03;;;;;;;17.16;62.36;97048.48;1676316;85;25814;-79
2022/05/03 08:31:09;;;;;;;10.53;8.58;;;;;;;17.85;61.45;97054.69;1676343;85;28346;-76
2022/05/03 08:33:36;;;;;;;11.53;9.68;;;;;;;18.38;59.74;97052.67;1675853;85;25923;-76
2022/05/03 08:36:03;;;;;;;9.48;8.33;;;;;;;18.91;59.04;97045.95;1676045;85;25771;-79
2022/05/03 08:44:01;;;;;;;8.25;7.20;;;;;;;20.54;55.94;97041.41;1676067;85;28417;-76
2022/05/03 08:46:31;;;;;;;8.80;7.05;;;;;;;21.14;54.29;97042.34;1676249;85;25842;-77
2022/05/03 08:49:02;;;;;;;9.23;7.25;;;;;;;21.59;52.82;97040.87;1675955;85;25679;-80
2022/05/03 08:51:31;;;;;;;6.72;5.90;;;;;;;22.05;52.49;97044.77;1673017;85;25789;-76
2022/05/03 08:54:00;;;;;;;7.50;5.90;;;;;;;22.44;51.12;97041.79;1690438;84;25729;-76
2022/05/03 08:56:28;;;;;;;7.15;6.42;;;;;;;22.69;49.07;97030.98;1675476;85;27351;-78
2022/05/03 08:58:55;;;;;;;7.42;6.03;;;;;;;22.90;48.47;97037.02;1675630;85;25760;-78
2022/05/03 09:01:21;;;;;;;10.80;6.42;;;;;;;23.21;48.29;97035.39;1675483;85;25873;-76
2022/05/03 09:03:48;;;;;;;6.65;5.80;;;;;;;23.59;46.99;97033.37;1675736;85;25877;-75
2022/05/03 09:06:14;;;;;;;7.58;6.22;;;;;;;23.69;45.54;97029.59;1675772;85;26235;-74
2022/05/03 09:08:41;;;;;;;7.47;6.50;;;;;;;23.91;45.40;97026.95;1675739;85;27445;-75
2022/05/03 09:11:16;;;;;;;7.10;5.75;;;;;;;24.23;43.75;97025.25;1675652;85;25819;-74
2022/05/03 09:13:43;;;;;;;6.75;6.15;;;;;;;24.43;43.75;97025.36;1675368;85;25821;-74
2022/05/03 09:16:15;;;;;;;7.40;5.87;;;;;;;24.58;42.98;97027.23;1648678;85;25917;-75
2022/05/03 09:18:44;;;;;;;5.65;5.03;;;;;;;24.80;42.17;97015.97;1623630;88;25851;-76
2022/05/03 09:24:08;;;;;;;7.92;4.90;;;;;;;25.05;40.96;97016.77;1623078;88;25754;-77
2022/05/03 09:26:37;;;;;;;5.60;4.70;;;;;;;24.70;40.05;97015.65;1623406;88;25817;-75
2022/05/03 09:29:14;;;;;;;6.37;5.35;;;;;;;24.09;40.08;97019.72;1624578;87;25867;-76
2022/05/03 09:31:47;;;;;;;16.90;5.97;;;;;;;24.11;40.43;97018.03;1571499;91;26492;-76
2022/05/03 09:34:27;;;;;;;6.72;5.75;;;;;;;24.03;39.98;97012.09;1571140;91;28253;-76
2022/05/03 09:37:00;;;;;;;6.55;5.95;;;;;;;23.82;39.94;97008.13;1571066;91;25845;-74
2022/05/03 09:39:35;;;;;;;8.68;6.10;;;;;;;23.69;39.39;97004.23;1571395;91;26232;-77
2022/05/03 09:42:20;;;;;;;7.25;6.37;;;;;;;23.68;39.84;97000.41;1541564;93;25935;-75
2022/05/03 09:45:02;;;;;;;9.88;5.70;;;;;;;23.85;39.61;96995.12;1541286;93;25718;-78
2022/05/03 09:47:34;;;;;;;6.05;5.45;;;;;;;24.18;39.18;96999.94;1541442;93;28240;-76
2022/05/03 09:50:02;;;;;;;6.08;5.20;;;;;;;24.43;38.79;96993.64;1541233;93;26510;-76
2022/05/03 09:52:32;;;;;;;7.42;5.47;;;;;;;24.52;38.29;96991.20;1544576;91;25915;-76
2022/05/03 09:55:07;;;;;;;8.58;5.42;;;;;;;24.31;37.64;96988.66;1566697;91;25874;-73
2022/05/03 09:57:38;;;;;;;7.90;5.50;;;;;;;24.14;38.23;96993.42;1540139;92;26142;-73
2022/05/03 10:00:08;;;;;;;7.62;5.37;;;;;;;24.33;38.01;96993.31;1544611;92;28152;-75
2022/05/03 10:02:37;;;;;;;5.00;4.50;;;;;;;24.38;37.48;96989.08;1542139;92;25979;-74
2022/05/03 10:05:04;;;;;;;6.95;5.05;;;;;;;24.40;37.60;96989.55;1542795;92;25778;-74
2022/05/03 10:07:30;;;;;;;5.37;4.75;;;;;;;24.18;37.40;96992.22;1542723;92;25839;-74
2022/05/03 10:09:57;;;;;;;6.85;5.15;;;;;;;23.96;37.41;96990.21;1542841;92;25805;-74
2022/05/03 10:12:24;;;;;;;5.25;4.75;;;;;;;24.27;37.39;96990.42;1542696;92;27455;-77
2022/05/03 10:14:52;;;;;;;5.55;4.55;;;;;;;23.97;37.30;96989.91;1543215;92;25757;-78
2022/05/03 10:20:40;;;;;;;6.10;4.90;;;;;;;23.24;36.88;96986.60;1478386;95;25945;-78
2022/05/03 10:23:28;;;;;;;6.17;4.72;;;;;;;22.85;37.03;96986.98;1473702;97;25860;-76
2022/05/03 10:26:11;;;;;;;5.90;5.03;;;;;;;22.41;36.83;96978.30;1473512;97;27468;-77
2022/05/03 10:29:06;;;;;;;5.95;5.20;;;;;;;22.48;37.68;96976.80;1435726;97;25850;-75
2022/05/03 10:31:57;;;;;;;8.18;6.03;;;;;;;22.81;38.01;96975.53;1419654;101;26139;-77
2022/05/03 10:34:44;;;;;;;7.85;5.42;;;;;;;22.68;37.52;96970.75;1419898;101;26402;-77
2022/05/03 10:37:13;;;;;;;6.33;5.10;;;;;;;22.78;37.47;96974.74;1419747;100;25957;-78
2022/05/03 10:39:51;;;;;;;6.75;4.67;;;;;;;23.03;37.60;96970.19;1419846;101;27608;-79
2022/05/03 10:42:22;;;;;;;5.60;5.00;;;;;;;23.29;37.08;96970.00;1438825;99;25931;-76
2022/05/03 10:45:10;;;;;;;6.22;5.58;;;;;;;23.59;36.33;96959.55;1434797;99;25957;-76
2022/05/03 10:47:54;;;;;;;6.70;5.30;;;;;;;23.99;36.32;96958.72;1429639;100;25845;-76
2022/05/03 10:50:26;;;;;;;8.80;4.65;;;;;;;24.13;35.43;96956.51;1431235;100;25803;-80
2022/05/03 10:52:59;;;;;;;;;;;;;;;24.42;35.35;96958.34;1420587;101;28154;-77
2022/05/03 10:55:28;;;;;;;;;;;;;;;24.84;34.35;96947.41;1445325;99;25873;-73
2022/05/03 10:58:28;;;;;;;6.25;5.35;;;;;;;24.86;33.95;96947.92;1451070;98;26025;-74
2022/05/03 11:01:20;;;;;;;6.75;6.15;;;;;;;24.83;34.44;96943.58;1450989;97;25890;-75
2022/05/03 11:04:01;;;;;;;7.62;6.78;;;;;;;24.63;34.66;96951.24;1450507;97;26078;-76
2022/05/03 11:06:32;;;;;;;5.70;5.10;;;;;;;24.47;34.91;96949.96;1452248;97;27704;-78
2022/05/03 11:11:47;;;;;;;7.53;5.10;;;;;;;24.03;34.09;96943.17;1433710;98;25853;-74
2022/05/03 11:14:21;;;;;;;6.08;5.47;;;;;;;23.98;34.17;96946.06;1434261;99;25776;-74
2022/05/03 11:17:05;;;;;;;5.62;5.12;;;;;;;24.16;34.56;96942.89;1490930;92;25826;-76
2022/05/03 11:19:51;;;;;;;5.97;5.28;;;;;;;24.19;34.00;96940.91;1506290;95;27423;-80
2022/05/03 11:22:22;;;;;;;5.60;5.10;;;;;;;24.05;33.83;96945.06;1508291;93;25985;-76
2022/05/03 11:24:53;;;;;;;8.25;7.05;;;;;;;24.24;33.73;96934.50;1509994;94;25402;-77
2022/05/03 11:27:21;;;;;;;8.30;5.55;;;;;;;24.60;34.46;96928.41;1544020;91;26231;-74
2022/05/03 11:30:00;;;;;;;5.97;5.17;;;;;;;24.66;33.69;96920.80;1554664;91;26017;-78
2022/05/03 11:32:37;;;;;;;5.83;5.22;;;;;;;24.98;33.66;96914.25;1573913;89;27625;-75
2022/05/03 11:35:15;;;;;;;7.10;5.60;;;;;;;25.21;33.15;96919.16;1544570;91;26123;-74
2022/05/03 11:40:26;;;;;;;6.35;5.03;;;;;;;25.15;32.57;96916.27;1460010;95;25802;-75
2022/05/03 11:42:53;;;;;;;5.70;5.15;;;;;;;24.74;31.70;96922.27;1427925;98;25873;-74
2022/05/03 11:45:19;;;;;;;6.42;5.53;;;;;;;23.88;31.95;96921.47;1437700;99;28255;-76
2022/05/03 11:47:49;;;;;;;5.78;5.17;;;;;;;22.95;32.13;96918.57;1437776;99;25935;-74
2022/05/03 11:56:09;;;;;;;6.90;5.80;;;;;;;21.87;35.60;96925.97;1433948;99;25831;-77
2022/05/03 11:58:37;;;;;;;7.87;6.25;;;;;;;21.78;36.32;96928.56;1409761;101;27469;-79
2022/05/03 12:01:12;;;;;;;6.62;5.87;;;;;;;21.58;36.33;96926.08;1409848;101;25953;-76
2022/05/03 12:03:51;;;;;;;9.23;6.17;;;;;;;21.53;37.00;96924.75;1420901;100;26033;-76
2022/05/03 12:06:19;;;;;;;7.47;6.42;;;;;;;21.47;36.66;96928.69;1421744;100;25832;-76
2022/05/03 12:08:47;;;;;;;8.58;6.40;;;;;;;21.47;36.96;96932.80;1424200;99;25893;-76
2022/05/03 12:11:22;;;;;;;7.72;6.70;;;;;;;21.44;36.80;96917.73;1421345;99;27533;-77
2022/05/03 12:13:49;;;;;;;7.37;6.22;;;;;;;21.45;37.09;96917.17;1415003;100;26413;-76
2022/05/03 12:16:23;;;;;;;6.72;6.03;;;;;;;21.44;37.42;96895.77;1421876;100;25856;-80
2022/05/03 12:18:50;;;;;;;8.60;6.35;;;;;;;21.83;38.18;96924.94;1421815;100;26684;-76
2022/05/03 12:21:21;;;;;;;6.70;5.95;;;;;;;22.10;37.45;96910.56;1420999;100;26027;-76
2022/05/03 12:24:03;;;;;;;8.75;5.85;;;;;;;22.36;37.45;96909.07;1416163;101;27482;-77
2022/05/03 12:26:38;;;;;;;7.65;5.87;;;;;;;22.72;36.88;96901.05;1402979;101;26060;-76
2022/05/03 12:29:07;;;;;;;13.80;5.75;;;;;;;23.05;36.68;96899.70;1383691;101;25830;-76
2022/05/03 12:31:38;;;;;;;8.93;6.15;;;;;;;23.13;36.46;96897.62;1378065;104;25747;-76